sensor_id;sensor_type;location;lat;lon;timestamp;P1;durP1;ratioP1;P2;durP2;ratioP2
20611;SDS011;10465;42.686;23.364;2023-03-14T00:02:02;8.82;;;5.95;;
20611;SDS011;10465;42.686;23.364;2023-03-14T00:04:27;8.40;;;5.72;;
20611;SDS011;10465;42.686;23.364;2023-03-14T00:06:53;8.23;;;5.70;;
20611;SDS011;10465;42.686;23.364;2023-03-14T00:09:18;9.30;;;6.03;;
20611;SDS011;10465;42.686;23.364;2023-03-14T00:11:44;10.00;;;6.10;;
20611;SDS011;10465;42.686;23.364;2023-03-14T00:14:10;9.10;;;5.78;;
20611;SDS011;10465;42.686;23.364;2023-03-14T00:16:36;8.30;;;5.75;;
20611;SDS011;10465;42.686;23.364;2023-03-14T00:19:02;10.32;;;6.15;;
20611;SDS011;10465;42.686;23.364;2023-03-14T00:21:27;9.68;;;6.15;;
20611;SDS011;10465;42.686;23.364;2023-03-14T00:23:53;9.93;;;6.20;;
20611;SDS011;10465;42.686;23.364;2023-03-14T00:26:19;9.82;;;5.78;;
20611;SDS011;10465;42.686;23.364;2023-03-14T00:28:46;11.45;;;6.60;;
20611;SDS011;10465;42.686;23.364;2023-03-14T00:31:13;9.60;;;5.85;;
20611;SDS011;10465;42.686;23.364;2023-03-14T00:33:40;8.15;;;5.35;;
20611;SDS011;10465;42.686;23.364;2023-03-14T00:36:08;10.35;;;6.18;;
20611;SDS011;10465;42.686;23.364;2023-03-14T00:38:36;7.80;;;5.50;;
20611;SDS011;10465;42.686;23.364;2023-03-14T00:41:06;8.32;;;5.90;;
20611;SDS011;10465;42.686;23.364;2023-03-14T00:43:33;8.80;;;5.60;;
20611;SDS011;10465;42.686;23.364;2023-03-14T00:45:58;8.05;;;5.72;;
20611;SDS011;10465;42.686;23.364;2023-03-14T00:48:24;8.20;;;5.70;;
20611;SDS011;10465;42.686;23.364;2023-03-14T00:50:49;10.18;;;6.18;;
20611;SDS011;10465;42.686;23.364;2023-03-14T00:53:15;11.90;;;6.13;;
20611;SDS011;10465;42.686;23.364;2023-03-14T00:55:41;11.45;;;5.65;;
20611;SDS011;10465;42.686;23.364;2023-03-14T00:58:09;8.95;;;6.03;;
20611;SDS011;10465;42.686;23.364;2023-03-14T01:00:35;7.85;;;5.32;;
20611;SDS011;10465;42.686;23.364;2023-03-14T01:03:00;8.63;;;4.90;;
20611;SDS011;10465;42.686;23.364;2023-03-14T01:05:26;6.95;;;4.78;;
20611;SDS011;10465;42.686;23.364;2023-03-14T01:07:52;6.72;;;4.65;;
20611;SDS011;10465;42.686;23.364;2023-03-14T01:10:17;8.98;;;5.00;;
20611;SDS011;10465;42.686;23.364;2023-03-14T01:12:43;7.07;;;4.82;;
20611;SDS011;10465;42.686;23.364;2023-03-14T01:15:08;7.03;;;4.90;;
20611;SDS011;10465;42.686;23.364;2023-03-14T01:17:34;5.97;;;4.28;;
20611;SDS011;10465;42.686;23.364;2023-03-14T01:20:03;6.15;;;4.22;;
20611;SDS011;10465;42.686;23.364;2023-03-14T01:22:29;10.00;;;4.82;;
20611;SDS011;10465;42.686;23.364;2023-03-14T01:24:55;8.57;;;4.97;;
20611;SDS011;10465;42.686;23.364;2023-03-14T01:27:20;13.70;;;7.60;;
20611;SDS011;10465;42.686;23.364;2023-03-14T01:29:46;13.85;;;7.38;;
20611;SDS011;10465;42.686;23.364;2023-03-14T01:32:12;12.07;;;6.93;;
20611;SDS011;10465;42.686;23.364;2023-03-14T01:34:37;11.27;;;6.10;;
20611;SDS011;10465;42.686;23.364;2023-03-14T01:37:03;11.38;;;6.45;;
20611;SDS011;10465;42.686;23.364;2023-03-14T01:39:28;10.13;;;5.60;;
20611;SDS011;10465;42.686;23.364;2023-03-14T01:41:54;6.57;;;4.85;;
20611;SDS011;10465;42.686;23.364;2023-03-14T01:44:20;7.18;;;4.97;;
20611;SDS011;10465;42.686;23.364;2023-03-14T01:46:46;8.02;;;5.43;;
20611;SDS011;10465;42.686;23.364;2023-03-14T01:52:05;9.88;;;5.07;;
20611;SDS011;10465;42.686;23.364;2023-03-14T01:59:52;8.43;;;5.55;;
20611;SDS011;10465;42.686;23.364;2023-03-14T02:02:21;7.97;;;5.47;;
20611;SDS011;10465;42.686;23.364;2023-03-14T02:04:49;7.68;;;5.40;;
20611;SDS011;10465;42.686;23.364;2023-03-14T02:07:22;9.13;;;5.80;;
20611;SDS011;10465;42.686;23.364;2023-03-14T02:09:55;7.95;;;5.63;;
20611;SDS011;10465;42.686;23.364;2023-03-14T02:12:22;8.13;;;5.75;;
20611;SDS011;10465;42.686;23.364;2023-03-14T02:14:48;7.25;;;4.68;;
20611;SDS011;10465;42.686;23.364;2023-03-14T02:17:17;9.50;;;4.82;;
20611;SDS011;10465;42.686;23.364;2023-03-14T02:19:57;6.90;;;4.93;;
20611;SDS011;10465;42.686;23.364;2023-03-14T02:22:35;9.32;;;5.43;;
20611;SDS011;10465;42.686;23.364;2023-03-14T02:27:56;10.45;;;5.18;;
20611;SDS011;10465;42.686;23.364;2023-03-14T02:30:23;9.32;;;6.15;;
20611;SDS011;10465;42.686;23.364;2023-03-14T02:32:55;11.25;;;6.43;;
20611;SDS011;10465;42.686;23.364;2023-03-14T02:35:26;8.43;;;5.90;;
20611;SDS011;10465;42.686;23.364;2023-03-14T02:38:02;8.77;;;5.88;;
20611;SDS011;10465;42.686;23.364;2023-03-14T02:40:34;11.48;;;6.88;;
20611;SDS011;10465;42.686;23.364;2023-03-14T02:42:59;11.13;;;7.47;;
20611;SDS011;10465;42.686;23.364;2023-03-14T02:48:04;14.20;;;7.88;;
20611;SDS011;10465;42.686;23.364;2023-03-14T02:50:33;11.75;;;7.28;;
20611;SDS011;10465;42.686;23.364;2023-03-14T02:52:59;10.70;;;6.93;;
20611;SDS011;10465;42.686;23.364;2023-03-14T02:55:25;11.18;;;6.95;;
20611;SDS011;10465;42.686;23.364;2023-03-14T02:57:53;11.18;;;7.78;;
20611;SDS011;10465;42.686;23.364;2023-03-14T03:00:19;11.95;;;7.30;;
20611;SDS011;10465;42.686;23.364;2023-03-14T03:02:45;12.90;;;6.95;;
20611;SDS011;10465;42.686;23.364;2023-03-14T03:05:11;13.07;;;7.30;;
20611;SDS011;10465;42.686;23.364;2023-03-14T03:07:36;10.35;;;6.40;;
20611;SDS011;10465;42.686;23.364;2023-03-14T03:10:02;11.27;;;6.50;;
20611;SDS011;10465;42.686;23.364;2023-03-14T03:12:28;13.55;;;6.78;;
20611;SDS011;10465;42.686;23.364;2023-03-14T03:14:53;11.20;;;6.72;;
20611;SDS011;10465;42.686;23.364;2023-03-14T03:17:19;12.50;;;7.10;;
20611;SDS011;10465;42.686;23.364;2023-03-14T03:19:44;15.65;;;7.18;;
20611;SDS011;10465;42.686;23.364;2023-03-14T03:22:10;11.38;;;6.88;;
20611;SDS011;10465;42.686;23.364;2023-03-14T03:24:35;12.73;;;6.78;;
20611;SDS011;10465;42.686;23.364;2023-03-14T03:27:01;14.30;;;7.50;;
20611;SDS011;10465;42.686;23.364;2023-03-14T03:29:26;11.90;;;7.55;;
20611;SDS011;10465;42.686;23.364;2023-03-14T03:31:52;10.18;;;7.03;;
20611;SDS011;10465;42.686;23.364;2023-03-14T03:34:17;12.55;;;7.25;;
20611;SDS011;10465;42.686;23.364;2023-03-14T03:36:43;12.13;;;7.25;;
20611;SDS011;10465;42.686;23.364;2023-03-14T03:39:08;12.63;;;7.57;;
20611;SDS011;10465;42.686;23.364;2023-03-14T03:41:34;14.70;;;8.35;;
20611;SDS011;10465;42.686;23.364;2023-03-14T03:43:59;12.02;;;7.70;;
20611;SDS011;10465;42.686;23.364;2023-03-14T03:46:25;18.33;;;9.10;;
20611;SDS011;10465;42.686;23.364;2023-03-14T03:48:54;14.15;;;8.32;;
20611;SDS011;10465;42.686;23.364;2023-03-14T03:51:20;17.23;;;9.70;;
20611;SDS011;10465;42.686;23.364;2023-03-14T03:53:45;16.23;;;11.25;;
20611;SDS011;10465;42.686;23.364;2023-03-14T03:56:11;24.55;;;12.85;;
20611;SDS011;10465;42.686;23.364;2023-03-14T03:58:36;18.80;;;12.25;;
20611;SDS011;10465;42.686;23.364;2023-03-14T04:01:03;17.50;;;12.48;;
20611;SDS011;10465;42.686;23.364;2023-03-14T04:03:31;17.98;;;11.65;;
20611;SDS011;10465;42.686;23.364;2023-03-14T04:06:00;21.60;;;12.40;;
20611;SDS011;10465;42.686;23.364;2023-03-14T04:08:27;21.85;;;11.98;;
20611;SDS011;10465;42.686;23.364;2023-03-14T04:10:54;18.77;;;12.30;;
20611;SDS011;10465;42.686;23.364;2023-03-14T04:13:20;20.63;;;12.25;;
20611;SDS011;10465;42.686;23.364;2023-03-14T04:15:46;18.52;;;11.30;;
20611;SDS011;10465;42.686;23.364;2023-03-14T04:18:11;20.05;;;10.73;;
20611;SDS011;10465;42.686;23.364;2023-03-14T04:20:37;18.45;;;10.85;;
20611;SDS011;10465;42.686;23.364;2023-03-14T04:23:02;18.98;;;11.25;;
20611;SDS011;10465;42.686;23.364;2023-03-14T04:25:27;19.50;;;10.88;;
20611;SDS011;10465;42.686;23.364;2023-03-14T04:27:53;17.52;;;11.10;;
20611;SDS011;10465;42.686;23.364;2023-03-14T04:30:18;17.85;;;11.73;;
20611;SDS011;10465;42.686;23.364;2023-03-14T04:32:44;24.70;;;12.98;;
20611;SDS011;10465;42.686;23.364;2023-03-14T04:35:09;21.25;;;12.27;;
20611;SDS011;10465;42.686;23.364;2023-03-14T04:37:35;25.55;;;13.30;;
20611;SDS011;10465;42.686;23.364;2023-03-14T04:40:00;20.95;;;12.55;;
20611;SDS011;10465;42.686;23.364;2023-03-14T04:42:26;22.23;;;12.50;;
20611;SDS011;10465;42.686;23.364;2023-03-14T04:44:51;23.38;;;13.90;;
20611;SDS011;10465;42.686;23.364;2023-03-14T04:47:17;23.85;;;12.63;;
20611;SDS011;10465;42.686;23.364;2023-03-14T04:49:42;22.23;;;13.27;;
20611;SDS011;10465;42.686;23.364;2023-03-14T04:52:08;25.52;;;14.30;;
20611;SDS011;10465;42.686;23.364;2023-03-14T04:54:33;24.67;;;14.07;;
20611;SDS011;10465;42.686;23.364;2023-03-14T04:56:59;22.13;;;13.38;;
20611;SDS011;10465;42.686;23.364;2023-03-14T04:59:24;21.27;;;13.43;;
20611;SDS011;10465;42.686;23.364;2023-03-14T05:01:50;22.92;;;14.18;;
20611;SDS011;10465;42.686;23.364;2023-03-14T05:04:15;26.20;;;15.20;;
20611;SDS011;10465;42.686;23.364;2023-03-14T05:06:41;27.33;;;15.18;;
20611;SDS011;10465;42.686;23.364;2023-03-14T05:09:07;26.25;;;14.57;;
20611;SDS011;10465;42.686;23.364;2023-03-14T05:11:33;26.63;;;15.82;;
20611;SDS011;10465;42.686;23.364;2023-03-14T05:13:58;29.02;;;14.55;;
20611;SDS011;10465;42.686;23.364;2023-03-14T05:16:23;25.23;;;15.18;;
20611;SDS011;10465;42.686;23.364;2023-03-14T05:18:50;24.02;;;15.18;;
20611;SDS011;10465;42.686;23.364;2023-03-14T05:21:15;22.35;;;14.27;;
20611;SDS011;10465;42.686;23.364;2023-03-14T05:23:41;27.35;;;15.23;;
20611;SDS011;10465;42.686;23.364;2023-03-14T05:26:06;29.85;;;16.00;;
20611;SDS011;10465;42.686;23.364;2023-03-14T05:28:32;34.42;;;17.42;;
20611;SDS011;10465;42.686;23.364;2023-03-14T05:30:57;32.60;;;17.48;;
20611;SDS011;10465;42.686;23.364;2023-03-14T05:33:22;31.15;;;19.58;;
20611;SDS011;10465;42.686;23.364;2023-03-14T05:35:48;32.05;;;18.48;;
20611;SDS011;10465;42.686;23.364;2023-03-14T05:38:13;33.92;;;19.00;;
20611;SDS011;10465;42.686;23.364;2023-03-14T05:40:39;37.33;;;20.88;;
20611;SDS011;10465;42.686;23.364;2023-03-14T05:43:04;41.45;;;21.98;;
20611;SDS011;10465;42.686;23.364;2023-03-14T05:45:32;40.33;;;22.80;;
20611;SDS011;10465;42.686;23.364;2023-03-14T05:47:58;40.85;;;23.02;;
20611;SDS011;10465;42.686;23.364;2023-03-14T05:50:24;41.92;;;23.38;;
20611;SDS011;10465;42.686;23.364;2023-03-14T05:52:49;34.28;;;21.75;;
20611;SDS011;10465;42.686;23.364;2023-03-14T05:55:14;40.30;;;22.50;;
20611;SDS011;10465;42.686;23.364;2023-03-14T05:57:40;39.63;;;21.55;;
20611;SDS011;10465;42.686;23.364;2023-03-14T06:00:06;43.83;;;24.48;;
20611;SDS011;10465;42.686;23.364;2023-03-14T06:02:31;35.38;;;21.67;;
20611;SDS011;10465;42.686;23.364;2023-03-14T06:04:57;40.38;;;24.20;;
20611;SDS011;10465;42.686;23.364;2023-03-14T06:07:22;44.70;;;24.38;;
20611;SDS011;10465;42.686;23.364;2023-03-14T06:09:48;46.83;;;27.30;;
20611;SDS011;10465;42.686;23.364;2023-03-14T06:12:13;45.20;;;27.58;;
20611;SDS011;10465;42.686;23.364;2023-03-14T06:14:38;40.70;;;23.38;;
20611;SDS011;10465;42.686;23.364;2023-03-14T06:17:04;38.40;;;20.98;;
20611;SDS011;10465;42.686;23.364;2023-03-14T06:19:29;35.00;;;19.58;;
20611;SDS011;10465;42.686;23.364;2023-03-14T06:21:55;32.60;;;19.25;;
20611;SDS011;10465;42.686;23.364;2023-03-14T06:24:20;27.67;;;18.48;;
20611;SDS011;10465;42.686;23.364;2023-03-14T06:26:45;31.08;;;19.15;;
20611;SDS011;10465;42.686;23.364;2023-03-14T06:29:11;34.58;;;20.90;;
20611;SDS011;10465;42.686;23.364;2023-03-14T06:31:38;28.50;;;18.35;;
20611;SDS011;10465;42.686;23.364;2023-03-14T06:34:03;26.67;;;19.00;;
20611;SDS011;10465;42.686;23.364;2023-03-14T06:36:29;31.13;;;19.60;;
20611;SDS011;10465;42.686;23.364;2023-03-14T06:38:55;34.78;;;20.25;;
20611;SDS011;10465;42.686;23.364;2023-03-14T06:41:20;33.70;;;20.58;;
20611;SDS011;10465;42.686;23.364;2023-03-14T06:43:48;36.13;;;18.95;;
20611;SDS011;10465;42.686;23.364;2023-03-14T06:46:14;29.17;;;18.63;;
20611;SDS011;10465;42.686;23.364;2023-03-14T06:48:40;29.95;;;19.60;;
20611;SDS011;10465;42.686;23.364;2023-03-14T06:51:06;30.27;;;18.92;;
20611;SDS011;10465;42.686;23.364;2023-03-14T06:53:31;29.15;;;18.50;;
20611;SDS011;10465;42.686;23.364;2023-03-14T06:55:57;29.38;;;17.83;;
20611;SDS011;10465;42.686;23.364;2023-03-14T06:58:22;33.55;;;17.92;;
20611;SDS011;10465;42.686;23.364;2023-03-14T07:00:48;29.75;;;18.13;;
20611;SDS011;10465;42.686;23.364;2023-03-14T07:03:13;28.38;;;18.10;;
20611;SDS011;10465;42.686;23.364;2023-03-14T07:05:40;31.25;;;18.98;;
20611;SDS011;10465;42.686;23.364;2023-03-14T07:08:06;27.05;;;17.17;;
20611;SDS011;10465;42.686;23.364;2023-03-14T07:10:33;28.95;;;17.08;;
20611;SDS011;10465;42.686;23.364;2023-03-14T07:12:59;27.98;;;16.08;;
20611;SDS011;10465;42.686;23.364;2023-03-14T07:15:24;28.55;;;15.73;;
20611;SDS011;10465;42.686;23.364;2023-03-14T07:17:50;26.52;;;16.10;;
20611;SDS011;10465;42.686;23.364;2023-03-14T07:20:16;26.02;;;16.83;;
20611;SDS011;10465;42.686;23.364;2023-03-14T07:22:41;24.63;;;15.07;;
20611;SDS011;10465;42.686;23.364;2023-03-14T07:25:07;25.23;;;15.00;;
20611;SDS011;10465;42.686;23.364;2023-03-14T07:27:34;21.10;;;12.45;;
20611;SDS011;10465;42.686;23.364;2023-03-14T07:30:00;15.77;;;10.63;;
20611;SDS011;10465;42.686;23.364;2023-03-14T07:32:25;17.73;;;10.50;;
20611;SDS011;10465;42.686;23.364;2023-03-14T07:34:51;17.63;;;10.98;;
20611;SDS011;10465;42.686;23.364;2023-03-14T07:37:16;16.08;;;10.63;;
20611;SDS011;10465;42.686;23.364;2023-03-14T07:39:41;19.52;;;10.98;;
20611;SDS011;10465;42.686;23.364;2023-03-14T07:42:07;18.25;;;10.95;;
20611;SDS011;10465;42.686;23.364;2023-03-14T07:44:32;18.90;;;11.20;;
20611;SDS011;10465;42.686;23.364;2023-03-14T07:46:58;20.48;;;11.60;;
20611;SDS011;10465;42.686;23.364;2023-03-14T07:49:23;16.75;;;11.35;;
20611;SDS011;10465;42.686;23.364;2023-03-14T07:51:49;19.10;;;11.10;;
20611;SDS011;10465;42.686;23.364;2023-03-14T07:54:15;16.05;;;11.27;;
20611;SDS011;10465;42.686;23.364;2023-03-14T07:56:40;19.65;;;11.48;;
20611;SDS011;10465;42.686;23.364;2023-03-14T07:59:06;17.83;;;11.15;;
20611;SDS011;10465;42.686;23.364;2023-03-14T08:01:32;18.35;;;11.55;;
20611;SDS011;10465;42.686;23.364;2023-03-14T08:03:58;18.83;;;10.88;;
20611;SDS011;10465;42.686;23.364;2023-03-14T08:06:23;16.83;;;10.90;;
20611;SDS011;10465;42.686;23.364;2023-03-14T08:08:49;17.70;;;11.05;;
20611;SDS011;10465;42.686;23.364;2023-03-14T08:11:14;15.82;;;10.98;;
20611;SDS011;10465;42.686;23.364;2023-03-14T08:13:40;17.85;;;10.65;;
20611;SDS011;10465;42.686;23.364;2023-03-14T08:16:05;14.98;;;10.45;;
20611;SDS011;10465;42.686;23.364;2023-03-14T08:18:31;13.63;;;9.50;;
20611;SDS011;10465;42.686;23.364;2023-03-14T08:20:57;12.52;;;9.30;;
20611;SDS011;10465;42.686;23.364;2023-03-14T08:23:22;16.02;;;9.73;;
20611;SDS011;10465;42.686;23.364;2023-03-14T08:25:49;12.40;;;9.23;;
20611;SDS011;10465;42.686;23.364;2023-03-14T08:28:15;13.85;;;9.35;;
20611;SDS011;10465;42.686;23.364;2023-03-14T08:30:41;12.52;;;8.45;;
20611;SDS011;10465;42.686;23.364;2023-03-14T08:33:06;13.30;;;9.10;;
20611;SDS011;10465;42.686;23.364;2023-03-14T08:35:31;12.95;;;9.57;;
20611;SDS011;10465;42.686;23.364;2023-03-14T08:37:57;13.07;;;9.10;;
20611;SDS011;10465;42.686;23.364;2023-03-14T08:40:22;12.77;;;8.85;;
20611;SDS011;10465;42.686;23.364;2023-03-14T08:42:48;12.70;;;8.95;;
20611;SDS011;10465;42.686;23.364;2023-03-14T08:45:14;13.13;;;9.30;;
20611;SDS011;10465;42.686;23.364;2023-03-14T08:47:42;15.23;;;9.00;;
20611;SDS011;10465;42.686;23.364;2023-03-14T08:50:08;12.40;;;8.20;;
20611;SDS011;10465;42.686;23.364;2023-03-14T08:52:35;12.30;;;7.90;;
20611;SDS011;10465;42.686;23.364;2023-03-14T08:55:02;15.27;;;11.57;;
20611;SDS011;10465;42.686;23.364;2023-03-14T08:57:28;12.82;;;8.85;;
20611;SDS011;10465;42.686;23.364;2023-03-14T08:59:54;10.55;;;6.90;;
20611;SDS011;10465;42.686;23.364;2023-03-14T09:02:21;15.02;;;9.63;;
20611;SDS011;10465;42.686;23.364;2023-03-14T09:04:47;11.85;;;7.18;;
20611;SDS011;10465;42.686;23.364;2023-03-14T09:07:14;6.63;;;5.47;;
20611;SDS011;10465;42.686;23.364;2023-03-14T09:09:40;9.98;;;6.47;;
20611;SDS011;10465;42.686;23.364;2023-03-14T09:12:05;7.75;;;6.20;;
20611;SDS011;10465;42.686;23.364;2023-03-14T09:14:31;12.77;;;7.20;;
20611;SDS011;10465;42.686;23.364;2023-03-14T09:16:57;14.18;;;8.15;;
20611;SDS011;10465;42.686;23.364;2023-03-14T09:19:22;12.77;;;7.97;;
20611;SDS011;10465;42.686;23.364;2023-03-14T09:21:48;10.98;;;7.13;;
20611;SDS011;10465;42.686;23.364;2023-03-14T09:24:13;10.98;;;7.00;;
20611;SDS011;10465;42.686;23.364;2023-03-14T09:26:39;11.05;;;7.45;;
20611;SDS011;10465;42.686;23.364;2023-03-14T09:29:05;11.70;;;7.50;;
20611;SDS011;10465;42.686;23.364;2023-03-14T09:31:30;13.73;;;7.55;;
20611;SDS011;10465;42.686;23.364;2023-03-14T09:33:56;9.20;;;6.30;;
20611;SDS011;10465;42.686;23.364;2023-03-14T09:36:21;11.65;;;7.13;;
20611;SDS011;10465;42.686;23.364;2023-03-14T09:38:47;8.65;;;6.20;;
20611;SDS011;10465;42.686;23.364;2023-03-14T09:41:17;11.90;;;7.45;;
20611;SDS011;10465;42.686;23.364;2023-03-14T09:43:46;8.63;;;7.18;;
20611;SDS011;10465;42.686;23.364;2023-03-14T09:46:16;11.57;;;7.80;;
20611;SDS011;10465;42.686;23.364;2023-03-14T09:48:41;12.95;;;8.10;;
20611;SDS011;10465;42.686;23.364;2023-03-14T09:51:13;14.27;;;8.13;;
20611;SDS011;10465;42.686;23.364;2023-03-14T09:53:48;14.07;;;8.32;;
20611;SDS011;10465;42.686;23.364;2023-03-14T09:56:25;13.57;;;8.40;;
20611;SDS011;10465;42.686;23.364;2023-03-14T09:58:56;14.32;;;7.63;;
20611;SDS011;10465;42.686;23.364;2023-03-14T10:01:29;13.70;;;8.00;;
20611;SDS011;10465;42.686;23.364;2023-03-14T10:03:58;11.32;;;7.95;;
20611;SDS011;10465;42.686;23.364;2023-03-14T10:06:28;11.48;;;7.78;;
20611;SDS011;10465;42.686;23.364;2023-03-14T10:08:55;11.82;;;7.07;;
20611;SDS011;10465;42.686;23.364;2023-03-14T10:11:22;10.30;;;8.02;;
20611;SDS011;10465;42.686;23.364;2023-03-14T10:16:28;10.73;;;7.22;;
20611;SDS011;10465;42.686;23.364;2023-03-14T10:18:58;14.75;;;7.35;;
20611;SDS011;10465;42.686;23.364;2023-03-14T10:21:28;9.75;;;6.32;;
20611;SDS011;10465;42.686;23.364;2023-03-14T10:23:55;6.85;;;5.05;;
20611;SDS011;10465;42.686;23.364;2023-03-14T10:26:59;6.68;;;4.93;;
20611;SDS011;10465;42.686;23.364;2023-03-14T10:29:30;6.05;;;5.40;;
20611;SDS011;10465;42.686;23.364;2023-03-14T10:31:58;7.60;;;5.65;;
20611;SDS011;10465;42.686;23.364;2023-03-14T10:34:30;7.78;;;5.85;;
20611;SDS011;10465;42.686;23.364;2023-03-14T10:37:21;9.68;;;5.82;;
20611;SDS011;10465;42.686;23.364;2023-03-14T10:39:55;9.82;;;5.15;;
20611;SDS011;10465;42.686;23.364;2023-03-14T10:42:30;9.10;;;5.15;;
20611;SDS011;10465;42.686;23.364;2023-03-14T10:45:03;5.53;;;4.30;;
20611;SDS011;10465;42.686;23.364;2023-03-14T10:47:32;6.25;;;4.57;;
20611;SDS011;10465;42.686;23.364;2023-03-14T10:50:21;6.30;;;4.50;;
20611;SDS011;10465;42.686;23.364;2023-03-14T10:52:49;5.53;;;4.35;;
20611;SDS011;10465;42.686;23.364;2023-03-14T10:55:17;5.85;;;4.43;;
20611;SDS011;10465;42.686;23.364;2023-03-14T10:57:43;5.13;;;4.45;;
20611;SDS011;10465;42.686;23.364;2023-03-14T11:00:27;6.68;;;3.75;;
20611;SDS011;10465;42.686;23.364;2023-03-14T11:03:05;9.25;;;4.28;;
20611;SDS011;10465;42.686;23.364;2023-03-14T11:05:44;8.30;;;3.78;;
20611;SDS011;10465;42.686;23.364;2023-03-14T11:08:42;5.65;;;4.40;;
20611;SDS011;10465;42.686;23.364;2023-03-14T11:11:28;6.82;;;4.40;;
20611;SDS011;10465;42.686;23.364;2023-03-14T11:16:42;5.13;;;3.88;;
20611;SDS011;10465;42.686;23.364;2023-03-14T11:19:17;6.60;;;4.60;;
20611;SDS011;10465;42.686;23.364;2023-03-14T11:25:16;4.57;;;3.90;;
20611;SDS011;10465;42.686;23.364;2023-03-14T11:27:55;5.72;;;3.42;;
20611;SDS011;10465;42.686;23.364;2023-03-14T11:33:25;6.43;;;3.33;;
20611;SDS011;10465;42.686;23.364;2023-03-14T11:36:07;5.85;;;3.92;;
20611;SDS011;10465;42.686;23.364;2023-03-14T11:38:37;4.82;;;3.33;;
20611;SDS011;10465;42.686;23.364;2023-03-14T11:41:04;6.38;;;3.53;;
20611;SDS011;10465;42.686;23.364;2023-03-14T11:43:39;4.38;;;3.42;;
20611;SDS011;10465;42.686;23.364;2023-03-14T11:46:21;7.32;;;3.75;;
20611;SDS011;10465;42.686;23.364;2023-03-14T11:48:57;5.45;;;3.25;;
20611;SDS011;10465;42.686;23.364;2023-03-14T11:51:47;3.60;;;3.10;;
20611;SDS011;10465;42.686;23.364;2023-03-14T11:54:22;5.15;;;3.05;;
20611;SDS011;10465;42.686;23.364;2023-03-14T11:57:03;9.05;;;3.58;;
20611;SDS011;10465;42.686;23.364;2023-03-14T11:59:55;5.18;;;2.92;;
20611;SDS011;10465;42.686;23.364;2023-03-14T12:10:42;4.55;;;2.65;;
20611;SDS011;10465;42.686;23.364;2023-03-14T12:13:14;3.55;;;2.53;;
20611;SDS011;10465;42.686;23.364;2023-03-14T12:15:53;2.55;;;2.30;;
20611;SDS011;10465;42.686;23.364;2023-03-14T12:18:29;4.53;;;2.72;;
20611;SDS011;10465;42.686;23.364;2023-03-14T12:21:00;4.53;;;2.30;;
20611;SDS011;10465;42.686;23.364;2023-03-14T12:23:28;3.13;;;2.40;;
20611;SDS011;10465;42.686;23.364;2023-03-14T12:26:13;2.80;;;2.33;;
20611;SDS011;10465;42.686;23.364;2023-03-14T12:28:49;3.78;;;2.47;;
20611;SDS011;10465;42.686;23.364;2023-03-14T12:42:12;2.55;;;2.03;;
20611;SDS011;10465;42.686;23.364;2023-03-14T12:45:02;2.70;;;2.33;;
20611;SDS011;10465;42.686;23.364;2023-03-14T12:47:56;2.83;;;2.28;;
20611;SDS011;10465;42.686;23.364;2023-03-14T12:50:30;4.03;;;2.33;;
20611;SDS011;10465;42.686;23.364;2023-03-14T12:53:24;2.30;;;2.10;;
20611;SDS011;10465;42.686;23.364;2023-03-14T13:01:40;4.25;;;2.05;;
20611;SDS011;10465;42.686;23.364;2023-03-14T13:04:13;5.00;;;2.38;;
20611;SDS011;10465;42.686;23.364;2023-03-14T13:06:46;3.72;;;2.05;;
20611;SDS011;10465;42.686;23.364;2023-03-14T13:11:50;2.97;;;2.03;;
20611;SDS011;10465;42.686;23.364;2023-03-14T13:14:18;2.85;;;2.00;;
20611;SDS011;10465;42.686;23.364;2023-03-14T13:16:43;3.58;;;1.77;;
20611;SDS011;10465;42.686;23.364;2023-03-14T13:19:13;2.80;;;2.03;;
20611;SDS011;10465;42.686;23.364;2023-03-14T13:21:43;2.42;;;2.08;;
20611;SDS011;10465;42.686;23.364;2023-03-14T13:24:22;3.72;;;2.28;;
20611;SDS011;10465;42.686;23.364;2023-03-14T13:26:49;3.88;;;1.90;;
20611;SDS011;10465;42.686;23.364;2023-03-14T13:29:19;4.65;;;2.08;;
20611;SDS011;10465;42.686;23.364;2023-03-14T13:31:52;5.45;;;2.45;;
20611;SDS011;10465;42.686;23.364;2023-03-14T13:34:19;5.50;;;2.50;;
20611;SDS011;10465;42.686;23.364;2023-03-14T13:36:45;3.92;;;2.08;;
20611;SDS011;10465;42.686;23.364;2023-03-14T13:39:18;6.15;;;2.00;;
20611;SDS011;10465;42.686;23.364;2023-03-14T13:41:49;3.58;;;2.58;;
20611;SDS011;10465;42.686;23.364;2023-03-14T13:44:16;2.30;;;2.10;;
20611;SDS011;10465;42.686;23.364;2023-03-14T13:47:01;2.10;;;1.70;;
20611;SDS011;10465;42.686;23.364;2023-03-14T13:49:29;3.25;;;1.95;;
20611;SDS011;10465;42.686;23.364;2023-03-14T13:52:00;4.78;;;2.15;;
20611;SDS011;10465;42.686;23.364;2023-03-14T13:54:26;4.72;;;2.50;;
20611;SDS011;10465;42.686;23.364;2023-03-14T13:56:59;3.13;;;2.20;;
20611;SDS011;10465;42.686;23.364;2023-03-14T13:59:27;3.97;;;2.20;;
20611;SDS011;10465;42.686;23.364;2023-03-14T14:01:54;3.85;;;2.83;;
20611;SDS011;10465;42.686;23.364;2023-03-14T14:04:23;4.85;;;2.30;;
20611;SDS011;10465;42.686;23.364;2023-03-14T14:06:55;3.78;;;2.83;;
20611;SDS011;10465;42.686;23.364;2023-03-14T14:09:24;3.30;;;2.33;;
20611;SDS011;10465;42.686;23.364;2023-03-14T14:17:50;3.00;;;1.88;;
20611;SDS011;10465;42.686;23.364;2023-03-14T14:20:26;3.15;;;2.15;;
20611;SDS011;10465;42.686;23.364;2023-03-14T14:22:57;4.53;;;2.00;;
20611;SDS011;10465;42.686;23.364;2023-03-14T14:25:24;4.50;;;2.00;;
20611;SDS011;10465;42.686;23.364;2023-03-14T14:27:49;3.92;;;2.08;;
20611;SDS011;10465;42.686;23.364;2023-03-14T14:32:44;4.20;;;2.00;;
20611;SDS011;10465;42.686;23.364;2023-03-14T14:35:24;3.70;;;1.80;;
20611;SDS011;10465;42.686;23.364;2023-03-14T14:37:52;6.82;;;1.98;;
20611;SDS011;10465;42.686;23.364;2023-03-14T14:40:25;4.72;;;2.30;;
20611;SDS011;10465;42.686;23.364;2023-03-14T14:42:52;6.25;;;2.40;;
20611;SDS011;10465;42.686;23.364;2023-03-14T14:45:19;5.07;;;2.53;;
20611;SDS011;10465;42.686;23.364;2023-03-14T14:47:50;8.10;;;2.13;;
20611;SDS011;10465;42.686;23.364;2023-03-14T14:52:59;5.38;;;1.70;;
20611;SDS011;10465;42.686;23.364;2023-03-14T14:55:33;3.72;;;2.10;;
20611;SDS011;10465;42.686;23.364;2023-03-14T15:03:29;2.40;;;1.73;;
20611;SDS011;10465;42.686;23.364;2023-03-14T15:05:56;2.65;;;2.20;;
20611;SDS011;10465;42.686;23.364;2023-03-14T15:08:23;5.85;;;2.45;;
20611;SDS011;10465;42.686;23.364;2023-03-14T15:10:49;3.20;;;2.60;;
20611;SDS011;10465;42.686;23.364;2023-03-14T15:13:14;4.03;;;2.33;;
20611;SDS011;10465;42.686;23.364;2023-03-14T15:15:40;3.95;;;2.47;;
20611;SDS011;10465;42.686;23.364;2023-03-14T15:18:14;4.65;;;2.50;;
20611;SDS011;10465;42.686;23.364;2023-03-14T15:20:42;4.28;;;2.40;;
20611;SDS011;10465;42.686;23.364;2023-03-14T15:23:12;3.13;;;2.20;;
20611;SDS011;10465;42.686;23.364;2023-03-14T15:25:39;4.95;;;2.88;;
20611;SDS011;10465;42.686;23.364;2023-03-14T15:28:15;5.75;;;2.50;;
20611;SDS011;10465;42.686;23.364;2023-03-14T15:30:43;4.70;;;2.53;;
20611;SDS011;10465;42.686;23.364;2023-03-14T15:33:08;6.00;;;2.47;;
20611;SDS011;10465;42.686;23.364;2023-03-14T15:35:37;9.63;;;5.68;;
20611;SDS011;10465;42.686;23.364;2023-03-14T15:38:03;6.38;;;3.13;;
20611;SDS011;10465;42.686;23.364;2023-03-14T15:40:29;7.78;;;2.45;;